createdAt,value
2018-09-04T00:01:47.630Z,100.00
2018-09-04T00:04:17.791Z,100.00
2018-09-04T00:06:48.017Z,100.00
2018-09-04T00:09:18.135Z,100.00
2018-09-04T00:11:49.124Z,100.00
2018-09-04T00:14:19.224Z,100.00
2018-09-04T00:16:49.445Z,100.00
2018-09-04T00:19:19.530Z,100.00
2018-09-04T00:21:50.896Z,100.00
2018-09-04T00:24:21.088Z,100.00
2018-09-04T00:26:52.083Z,100.00
2018-09-04T00:29:22.994Z,100.00
2018-09-04T00:31:54.189Z,100.00
2018-09-04T00:34:24.366Z,100.00
2018-09-04T00:36:54.316Z,100.00
2018-09-04T00:39:24.277Z,100.00
2018-09-04T00:41:54.065Z,100.00
2018-09-04T00:44:24.116Z,100.00
2018-09-04T00:46:54.057Z,100.00
2018-09-04T00:49:23.811Z,100.00
2018-09-04T00:51:53.656Z,100.00
2018-09-04T00:54:23.491Z,100.00
2018-09-04T00:56:53.485Z,100.00
2018-09-04T00:59:23.458Z,100.00
2018-09-04T01:01:53.513Z,100.00
2018-09-04T01:04:23.408Z,100.00
2018-09-04T01:06:53.408Z,100.00
2018-09-04T01:09:24.076Z,100.00
2018-09-04T01:11:53.981Z,99.44
2018-09-04T01:14:23.880Z,99.08
2018-09-04T01:16:54.036Z,99.26
2018-09-04T01:19:24.176Z,100.00
2018-09-04T01:21:54.000Z,100.00
2018-09-04T01:24:23.832Z,100.00
2018-09-04T01:26:53.731Z,100.00
2018-09-04T01:29:23.635Z,100.00
2018-09-04T01:31:53.535Z,100.00
2018-09-04T01:34:23.447Z,100.00
2018-09-04T01:36:53.854Z,99.43
2018-09-04T01:39:23.641Z,100.00
2018-09-04T01:41:53.731Z,100.00
2018-09-04T01:44:23.698Z,100.00
2018-09-04T01:46:53.665Z,100.00
2018-09-04T01:49:23.790Z,100.00
2018-09-04T01:51:53.666Z,100.00
2018-09-04T01:54:23.963Z,100.00
2018-09-04T01:56:54.040Z,99.63
2018-09-04T01:59:23.965Z,99.04
2018-09-04T02:01:53.936Z,99.00
2018-09-04T02:04:23.819Z,98.51
2018-09-04T02:06:53.744Z,97.56
2018-09-04T02:09:25.512Z,99.58
2018-09-04T02:11:56.400Z,100.00
2018-09-04T02:14:26.369Z,100.00
2018-09-04T02:16:56.128Z,100.00
2018-09-04T02:19:26.962Z,100.00
2018-09-04T02:21:56.889Z,100.00
2018-09-04T02:24:26.729Z,100.00
2018-09-04T02:26:56.722Z,100.00
2018-09-04T02:29:26.556Z,100.00
2018-09-04T02:31:56.510Z,100.00
2018-09-04T02:34:26.321Z,100.00
2018-09-04T02:36:56.347Z,100.00
2018-09-04T02:39:26.168Z,100.00
2018-09-04T02:41:56.072Z,100.00
2018-09-04T02:44:26.378Z,100.00
2018-09-04T02:46:56.344Z,100.00
2018-09-04T02:49:26.279Z,100.00
2018-09-04T02:51:56.477Z,100.00
2018-09-04T02:54:26.572Z,100.00
2018-09-04T02:56:56.549Z,100.00
2018-09-04T02:59:26.487Z,100.00
2018-09-04T03:01:56.476Z,100.00
2018-09-04T03:04:27.525Z,100.00
2018-09-04T03:07:14.031Z,100.00
2018-09-04T03:09:47.010Z,100.00
2018-09-04T03:12:18.622Z,100.00
2018-09-04T03:14:48.617Z,100.00
2018-09-04T03:17:18.506Z,100.00
2018-09-04T03:19:48.699Z,100.00
2018-09-04T03:22:18.737Z,100.00
2018-09-04T03:24:48.990Z,100.00
2018-09-04T03:27:19.079Z,100.00
2018-09-04T03:29:49.345Z,100.00
2018-09-04T03:32:19.665Z,100.00
2018-09-04T03:34:49.666Z,100.00
2018-09-04T03:37:19.870Z,100.00
2018-09-04T03:39:50.189Z,100.00
2018-09-04T03:42:20.611Z,100.00
2018-09-04T03:44:51.679Z,100.00
2018-09-04T03:47:22.839Z,100.00
2018-09-04T03:49:53.255Z,100.00
2018-09-04T03:52:23.509Z,100.00
2018-09-04T03:54:53.494Z,100.00
2018-09-04T03:57:23.708Z,99.13
2018-09-04T03:59:53.919Z,99.15
2018-09-04T04:02:23.955Z,97.55
2018-09-04T04:04:54.081Z,96.50
2018-09-04T04:07:24.324Z,94.36
2018-09-04T04:09:54.504Z,91.70
2018-09-04T04:12:24.603Z,91.01
2018-09-04T04:14:54.653Z,90.10
2018-09-04T04:17:24.907Z,90.13
2018-09-04T04:19:54.998Z,90.56
2018-09-04T04:22:25.154Z,90.18
2018-09-04T04:24:55.146Z,89.92
2018-09-04T04:27:25.228Z,89.11
2018-09-04T04:29:55.417Z,87.75
2018-09-04T04:32:27.132Z,87.22
2018-09-04T04:34:57.411Z,87.39
2018-09-04T04:37:28.336Z,86.47
2018-09-04T04:39:58.716Z,85.90
2018-09-04T04:42:28.776Z,84.12
2018-09-04T04:44:59.262Z,80.53
2018-09-04T04:47:34.332Z,75.71
2018-09-04T04:50:04.433Z,72.58
2018-09-04T04:52:34.473Z,71.57
2018-09-04T04:55:04.771Z,72.92
2018-09-04T04:57:34.988Z,73.78
2018-09-04T05:00:05.400Z,75.60
2018-09-04T05:02:35.516Z,77.58
2018-09-04T05:05:05.809Z,75.25
2018-09-04T05:07:36.325Z,75.57
2018-09-04T05:10:06.607Z,76.79
2018-09-04T05:12:36.931Z,76.51
2018-09-04T05:15:07.450Z,76.23
2018-09-04T05:17:37.656Z,78.01
2018-09-04T05:20:09.851Z,79.52
2018-09-04T05:22:40.049Z,79.64
2018-09-04T05:25:10.010Z,78.24
2018-09-04T05:27:40.315Z,77.32
2018-09-04T05:30:11.005Z,76.49
2018-09-04T05:32:45.649Z,72.61
2018-09-04T05:35:17.424Z,69.33
2018-09-04T05:37:49.755Z,63.60
2018-09-04T05:40:19.945Z,56.85
2018-09-04T05:42:54.409Z,54.88
2018-09-04T05:45:27.214Z,50.82
2018-09-04T05:48:05.944Z,47.96
2018-09-04T05:50:36.316Z,44.52
2018-09-04T05:53:06.717Z,41.70
2018-09-04T05:55:37.267Z,41.17
2018-09-04T05:58:07.851Z,40.71
2018-09-04T06:00:48.811Z,43.20
2018-09-04T06:03:19.137Z,42.12
2018-09-04T06:05:49.308Z,41.64
2018-09-04T06:08:20.110Z,44.18
2018-09-04T06:10:50.519Z,45.25
2018-09-04T06:13:22.377Z,45.64
2018-09-04T06:15:52.582Z,48.07
2018-09-04T06:18:23.941Z,49.42
2018-09-04T06:20:54.332Z,46.67
2018-09-04T06:23:24.044Z,44.61
2018-09-04T06:25:53.837Z,45.21
2018-09-04T06:28:25.001Z,41.02
2018-09-04T06:30:55.395Z,38.07
2018-09-04T06:33:25.571Z,36.79
2018-09-04T06:35:56.054Z,36.41
2018-09-04T06:38:26.493Z,35.21
2018-09-04T06:40:56.871Z,35.70
2018-09-04T06:43:26.956Z,35.82
2018-09-04T06:45:57.107Z,36.29
2018-09-04T06:48:27.415Z,36.46
2018-09-04T06:50:58.713Z,35.79
2018-09-04T06:53:30.820Z,37.73
2018-09-04T06:56:01.346Z,37.99
2018-09-04T06:58:31.406Z,37.13
2018-09-04T07:01:01.520Z,36.81
2018-09-04T07:03:32.138Z,38.73
2018-09-04T07:06:02.400Z,40.92
2018-09-04T07:08:33.300Z,38.51
2018-09-04T07:11:03.593Z,40.94
2018-09-04T07:13:33.485Z,43.87
2018-09-04T07:16:04.793Z,45.43
2018-09-04T07:18:35.311Z,47.18
2018-09-04T07:21:05.751Z,49.55
2018-09-04T07:23:36.459Z,51.70
2018-09-04T07:26:07.008Z,53.76
2018-09-04T07:28:37.435Z,54.70
2018-09-04T07:31:08.298Z,56.98
2018-09-04T07:33:38.551Z,56.82
2018-09-04T07:36:08.928Z,58.52
2018-09-04T07:38:38.813Z,60.71
2018-09-04T07:41:08.913Z,62.43
2018-09-04T07:43:41.019Z,61.14
2018-09-04T07:46:11.509Z,60.50
2018-09-04T07:48:41.489Z,61.94
2018-09-04T07:51:11.804Z,60.39
2018-09-04T07:53:42.878Z,62.56
2018-09-04T07:56:13.744Z,60.99
2018-09-04T07:58:43.643Z,60.97
2018-09-04T08:01:13.328Z,61.91
2018-09-04T08:03:43.058Z,63.04
2018-09-04T08:06:12.873Z,63.66
2018-09-04T08:08:42.708Z,63.07
2018-09-04T08:11:12.631Z,62.59
2018-09-04T08:13:42.403Z,64.34
2018-09-04T08:16:12.196Z,64.29
2018-09-04T08:18:42.001Z,63.19
2018-09-04T08:21:11.734Z,64.31
2018-09-04T08:23:41.539Z,63.30
2018-09-04T08:26:12.437Z,62.33
2018-09-04T08:28:43.376Z,60.91
2018-09-04T08:31:13.084Z,62.18
2018-09-04T08:33:43.425Z,62.23
2018-09-04T08:36:13.295Z,60.75
2018-09-04T08:38:48.231Z,60.71
2018-09-04T08:41:17.917Z,59.51
2018-09-04T08:43:50.021Z,59.61
2018-09-04T08:46:20.337Z,58.85
2018-09-04T08:48:50.628Z,58.47
2018-09-04T08:51:20.496Z,59.72
2018-09-04T08:53:50.437Z,58.69
2018-09-04T08:56:20.480Z,58.30
2018-09-04T08:58:50.656Z,56.27
2018-09-04T09:01:21.451Z,52.73
2018-09-04T09:03:51.617Z,50.69
2018-09-04T09:06:21.639Z,51.29
2018-09-04T09:08:51.300Z,50.62
2018-09-04T09:11:21.255Z,49.44
2018-09-04T09:13:51.360Z,49.98
2018-09-04T09:16:21.667Z,48.85
2018-09-04T09:18:51.843Z,47.59
2018-09-04T09:21:21.925Z,48.31
2018-09-04T09:23:51.766Z,49.44
2018-09-04T09:26:21.744Z,47.83
2018-09-04T09:28:53.419Z,47.14
2018-09-04T09:31:23.369Z,49.31
2018-09-04T09:33:53.869Z,50.31
2018-09-04T09:36:23.701Z,53.86
2018-09-04T09:38:53.547Z,54.15
2018-09-04T09:41:23.676Z,54.44
2018-09-04T09:43:53.545Z,55.44
2018-09-04T09:46:23.060Z,55.71
2018-09-04T09:48:53.523Z,54.76
2018-09-04T09:51:23.853Z,55.79
2018-09-04T09:53:53.558Z,56.74
2018-09-04T09:56:23.603Z,56.00
2018-09-04T09:58:53.376Z,57.82
2018-09-04T10:01:27.963Z,58.25
2018-09-04T10:04:04.360Z,58.08
2018-09-04T10:06:34.157Z,58.10
2018-09-04T10:09:05.657Z,58.84
2018-09-04T10:11:35.642Z,59.80
2018-09-04T10:14:05.622Z,59.96
2018-09-04T10:16:35.592Z,60.60
2018-09-04T10:19:05.907Z,60.68
2018-09-04T10:21:35.683Z,60.86
2018-09-04T10:24:05.668Z,59.54
2018-09-04T10:26:36.148Z,60.98
2018-09-04T10:29:05.945Z,62.86
2018-09-04T10:31:35.711Z,62.91
2018-09-04T10:34:06.620Z,62.68
2018-09-04T10:36:36.431Z,61.42
2018-09-04T10:40:11.511Z,62.06
2018-09-04T10:42:41.451Z,62.62
2018-09-04T10:45:16.249Z,63.46
2018-09-04T10:47:46.963Z,63.74
2018-09-04T10:50:17.009Z,63.23
2018-09-04T10:52:46.951Z,61.96
2018-09-04T10:55:16.957Z,62.37
2018-09-04T10:57:46.879Z,63.89
2018-09-04T11:00:17.820Z,63.91
2018-09-04T11:02:48.106Z,62.73
2018-09-04T11:05:18.096Z,63.44
2018-09-04T11:07:47.941Z,63.61
2018-09-04T11:10:17.867Z,62.21
2018-09-04T11:12:47.694Z,61.37
2018-09-04T11:15:21.393Z,62.35
2018-09-04T11:17:51.428Z,62.03
2018-09-04T11:20:22.953Z,60.76
2018-09-04T11:22:52.794Z,61.79
2018-09-04T11:25:23.720Z,61.62
2018-09-04T11:27:53.695Z,60.79
2018-09-04T11:30:24.476Z,61.37
2018-09-04T11:32:55.209Z,60.39
2018-09-04T11:35:27.480Z,60.01
2018-09-04T11:37:57.309Z,61.73
2018-09-04T11:40:29.821Z,60.52
2018-09-04T11:43:00.007Z,59.75
2018-09-04T11:45:30.097Z,60.19
2018-09-04T11:48:00.449Z,60.97
2018-09-04T11:50:30.819Z,60.60
2018-09-04T11:53:00.687Z,60.46
2018-09-04T12:16:01.146Z,58.97
2018-09-04T12:18:31.818Z,59.65
2018-09-04T12:21:06.148Z,59.10
2018-09-04T12:23:36.751Z,56.85
2018-09-04T12:26:07.822Z,59.18
2018-09-04T12:28:38.506Z,59.18
2018-09-04T12:31:09.323Z,59.66
2018-09-04T12:33:39.446Z,59.06
2018-09-04T12:36:09.882Z,57.81
2018-09-04T12:38:42.681Z,58.95
2018-09-04T12:41:15.016Z,58.91
2018-09-04T12:43:46.520Z,58.86
2018-09-04T12:46:17.052Z,58.16
2018-09-04T12:48:51.930Z,59.40
2018-09-04T12:51:21.882Z,58.93
2018-09-04T12:53:52.219Z,59.90
2018-09-04T12:56:22.060Z,60.72
2018-09-04T12:58:52.000Z,61.42
2018-09-04T13:01:21.996Z,58.97
2018-09-04T13:03:51.801Z,60.89
2018-09-04T13:06:21.880Z,60.18
2018-09-04T13:08:52.645Z,60.18
2018-09-04T13:11:22.553Z,61.20
2018-09-04T13:13:52.665Z,61.51
2018-09-04T13:16:22.294Z,61.52
2018-09-04T13:18:52.273Z,62.67
2018-09-04T13:21:23.752Z,63.20
2018-09-04T13:23:53.649Z,61.23
2018-09-04T13:26:23.413Z,62.76
2018-09-04T13:28:54.299Z,60.27
2018-09-04T13:31:24.133Z,62.68
2018-09-04T13:33:54.830Z,62.74
2018-09-04T13:36:24.719Z,65.17
2018-09-04T13:38:54.584Z,64.42
2018-09-04T13:41:24.776Z,63.90
2018-09-04T13:43:56.022Z,64.53
2018-09-04T13:46:26.939Z,63.52
2018-09-04T13:48:57.668Z,64.53
2018-09-04T13:51:27.542Z,63.13
2018-09-04T13:53:58.123Z,63.44
2018-09-04T13:56:28.043Z,62.73
2018-09-04T13:58:57.973Z,63.75
2018-09-04T14:01:29.067Z,65.14
2018-09-04T14:03:58.918Z,64.85
2018-09-04T14:06:28.863Z,64.49
2018-09-04T14:08:58.831Z,65.26
2018-09-04T14:11:28.662Z,65.58
2018-09-04T14:14:00.403Z,66.06
2018-09-04T14:16:43.149Z,66.24
2018-09-04T14:19:01.370Z,65.86
2018-09-04T14:21:31.315Z,66.10
2018-09-04T14:24:01.311Z,66.33
2018-09-04T14:26:31.499Z,67.05
2018-09-04T14:29:08.261Z,66.78
2018-09-04T14:31:32.271Z,66.79
2018-09-04T14:34:02.260Z,68.78
2018-09-04T14:36:32.308Z,68.76
2018-09-04T14:39:02.143Z,68.65
2018-09-04T14:41:33.126Z,68.84
2018-09-04T14:44:06.309Z,67.79
2018-09-04T14:46:37.589Z,67.17
2018-09-04T14:49:08.903Z,67.74
2018-09-04T14:51:39.019Z,68.75
2018-09-04T14:54:08.919Z,68.06
2018-09-04T14:56:41.315Z,67.73
2018-09-04T14:59:11.234Z,68.00
2018-09-04T15:01:44.364Z,68.43
2018-09-04T15:04:14.622Z,68.64
2018-09-04T15:06:44.670Z,68.94
2018-09-04T15:09:14.509Z,68.64
2018-09-04T15:11:44.740Z,69.52
2018-09-04T15:14:14.488Z,69.27
2018-09-04T15:16:44.284Z,70.12
2018-09-04T15:19:14.110Z,70.62
2018-09-04T15:21:44.013Z,72.40
2018-09-04T15:24:13.907Z,73.24
2018-09-04T15:26:43.721Z,73.52
2018-09-04T15:29:13.588Z,73.03
2018-09-04T15:31:43.448Z,74.43
2018-09-04T15:34:13.884Z,74.53
2018-09-04T15:36:43.818Z,74.37
2018-09-04T15:39:13.687Z,74.04
2018-09-04T15:41:43.639Z,73.93
2018-09-04T15:44:13.711Z,73.81
2018-09-04T15:46:44.118Z,74.78
2018-09-04T15:49:19.691Z,75.12
2018-09-04T15:51:49.627Z,75.86
2018-09-04T15:54:24.977Z,76.65
2018-09-04T15:56:54.916Z,76.46
2018-09-04T15:59:25.873Z,77.78
2018-09-04T16:01:55.872Z,78.09
2018-09-04T16:04:26.460Z,78.37
2018-09-04T16:06:56.361Z,78.39
2018-09-04T16:09:26.549Z,78.53
2018-09-04T16:11:56.621Z,78.72
2018-09-04T16:14:26.485Z,79.76
2018-09-04T16:16:56.276Z,79.98
2018-09-04T16:19:27.209Z,79.16
2018-09-04T16:21:57.099Z,80.22
2018-09-04T16:24:26.923Z,79.79
2018-09-04T16:26:56.685Z,80.83
2018-09-04T16:29:26.780Z,80.55
2018-09-04T16:31:57.743Z,81.43
2018-09-04T16:34:29.640Z,81.59
2018-09-04T16:36:59.721Z,81.75
2018-09-04T16:39:29.843Z,81.63
2018-09-04T16:41:59.853Z,82.30
2018-09-04T16:44:31.055Z,82.83
2018-09-04T16:47:01.394Z,82.53
2018-09-04T16:49:31.305Z,82.91
2018-09-04T16:52:02.570Z,83.18
2018-09-04T16:54:32.974Z,84.36
2018-09-04T16:57:02.858Z,84.67
2018-09-04T16:59:33.899Z,86.03
2018-09-04T17:02:04.154Z,86.41
2018-09-04T17:04:33.845Z,86.72
2018-09-04T17:07:07.673Z,86.87
2018-09-04T17:09:38.925Z,86.91
2018-09-04T17:12:09.789Z,87.30
2018-09-04T17:14:39.872Z,88.02
2018-09-04T17:17:10.883Z,88.17
2018-09-04T17:19:41.953Z,88.62
2018-09-04T17:22:12.599Z,88.57
2018-09-04T17:24:42.356Z,89.17
2018-09-04T17:27:12.404Z,89.22
2018-09-04T17:29:42.204Z,89.92
2018-09-04T17:32:14.496Z,89.98
2018-09-04T17:34:46.888Z,90.06
2018-09-04T17:37:20.660Z,89.79
2018-09-04T17:39:52.264Z,89.92
2018-09-04T17:42:23.636Z,91.37
2018-09-04T17:44:58.442Z,91.10
2018-09-04T17:47:32.160Z,91.40
2018-09-04T17:52:52.551Z,94.00
2018-09-04T17:55:27.411Z,93.86
2018-09-04T17:58:02.194Z,93.09
2018-09-04T18:00:33.435Z,93.10
2018-09-04T18:03:06.082Z,92.85
2018-09-04T18:05:42.730Z,92.59
2018-09-04T18:08:18.065Z,92.99
2018-09-04T18:10:55.512Z,92.74
2018-09-04T18:13:32.414Z,93.89
2018-09-04T18:16:05.019Z,93.85
2018-09-04T18:18:35.284Z,93.61
2018-09-04T18:21:05.529Z,94.51
2018-09-04T18:23:35.847Z,93.85
2018-09-04T18:26:08.953Z,94.80
2018-09-04T18:28:40.444Z,94.90
2018-09-04T18:31:11.590Z,95.25
2018-09-04T18:33:42.002Z,94.92
2018-09-04T18:36:13.270Z,95.24
2018-09-04T18:38:43.594Z,95.16
2018-09-04T18:41:13.718Z,95.49
2018-09-04T18:43:43.746Z,96.15
2018-09-04T18:46:14.442Z,97.02
2018-09-04T18:48:45.146Z,97.72
2018-09-04T18:51:15.080Z,97.05
2018-09-04T18:53:45.494Z,97.59
2018-09-04T18:56:16.383Z,96.96
2018-09-04T18:58:46.456Z,97.21
2018-09-04T19:01:16.576Z,97.23
2018-09-04T19:03:48.307Z,97.30
2018-09-04T19:06:18.275Z,97.80
2018-09-04T19:08:51.038Z,97.19
2018-09-04T19:11:23.061Z,97.53
2018-09-04T19:13:54.856Z,97.67
2018-09-04T19:16:27.138Z,98.06
2018-09-04T19:19:15.065Z,97.63
2018-09-04T19:21:45.663Z,96.66
2018-09-04T19:24:18.133Z,97.83
2018-09-04T19:27:06.931Z,98.03
2018-09-04T19:29:37.701Z,98.53
2018-09-04T19:32:13.437Z,99.43
2018-09-04T19:34:43.535Z,100.00
2018-09-04T19:37:15.092Z,99.45
2018-09-04T19:39:46.028Z,98.28
2018-09-04T19:42:15.789Z,97.51
2018-09-04T19:44:45.800Z,96.34
2018-09-04T19:47:15.810Z,96.51
2018-09-04T19:49:45.781Z,96.57
2018-09-04T19:52:15.655Z,94.97
2018-09-04T19:54:45.940Z,94.09
2018-09-04T19:57:15.784Z,94.46
2018-09-04T19:59:45.626Z,93.37
2018-09-04T20:02:15.809Z,92.98
2018-09-04T20:04:45.480Z,91.74
2018-09-04T20:07:15.370Z,91.78
2018-09-04T20:09:45.241Z,90.65
2018-09-04T20:12:16.378Z,90.17
2018-09-04T20:14:46.497Z,89.62
2018-09-04T20:17:16.603Z,88.90
2018-09-04T20:19:46.438Z,88.42
2018-09-04T20:22:16.539Z,88.84
2018-09-04T20:24:46.357Z,88.46
2018-09-04T20:27:16.181Z,87.94
2018-09-04T20:29:46.211Z,86.76
2018-09-04T20:32:16.093Z,84.88
2018-09-04T20:34:45.973Z,83.23
2018-09-04T20:37:15.753Z,83.39
2018-09-04T20:39:45.682Z,84.37
2018-09-04T20:42:16.355Z,82.73
2018-09-04T20:44:46.410Z,81.79
2018-09-04T20:47:17.212Z,81.57
2018-09-04T20:49:48.008Z,80.56
2018-09-04T20:52:18.051Z,80.52
2018-09-04T20:54:47.922Z,78.82
2018-09-04T20:57:25.002Z,76.96
2018-09-04T21:00:08.021Z,77.34
2018-09-04T21:02:48.658Z,75.07
2018-09-04T21:05:29.485Z,71.70
2018-09-04T21:08:17.266Z,70.83
2018-09-04T21:10:48.322Z,68.84
2018-09-04T21:13:18.136Z,66.58
2018-09-04T21:15:48.122Z,66.51
2018-09-04T21:18:20.552Z,65.39
2018-09-04T21:20:50.390Z,65.02
2018-09-04T21:23:20.572Z,65.24
2018-09-04T21:25:50.444Z,64.79
2018-09-04T21:28:20.675Z,63.69
2018-09-04T21:30:50.462Z,64.25
2018-09-04T21:33:20.497Z,67.35
2018-09-04T21:35:51.300Z,65.97
2018-09-04T21:38:22.472Z,64.68
2018-09-04T21:40:52.244Z,64.37
2018-09-04T21:43:22.223Z,64.12
2018-09-04T21:45:53.253Z,63.91
2018-09-04T21:48:23.149Z,65.12
2018-09-04T21:50:52.873Z,66.48
2018-09-04T21:53:22.595Z,67.04
2018-09-04T21:55:52.475Z,67.04
2018-09-04T21:58:22.114Z,67.10
2018-09-04T22:00:52.242Z,67.57
2018-09-04T22:03:22.051Z,67.96
2018-09-04T22:05:51.890Z,68.11
2018-09-04T22:08:21.670Z,68.43
2018-09-04T22:10:51.605Z,67.02
2018-09-04T22:13:21.401Z,67.71
2018-09-04T22:15:51.260Z,68.73
2018-09-04T22:18:21.022Z,66.64
2018-09-04T22:20:50.856Z,68.41
2018-09-04T22:23:20.639Z,65.97
2018-09-04T22:25:54.973Z,65.71
2018-09-04T22:28:24.662Z,66.07
2018-09-04T22:30:54.598Z,67.57
2018-09-04T22:33:24.342Z,68.72
2018-09-04T22:35:54.137Z,69.10
2018-09-04T22:38:23.937Z,69.22
2018-09-04T22:40:53.753Z,71.27
2018-09-04T22:43:23.677Z,69.24
2018-09-04T22:45:53.766Z,69.19
2018-09-04T22:48:23.543Z,68.97
2018-09-04T22:50:58.208Z,68.96
2018-09-04T22:53:28.058Z,68.59
2018-09-04T22:55:58.153Z,68.19
